Time,TemperatureF,DewpointF,PressureIn,WindDirection,WindDirectionDegrees,WindSpeedMPH,WindSpeedGustMPH,Humidity,HourlyPrecipIn,Conditions,Clouds,dailyrainin,SolarRadiationWatts/m^2,SoftwareType,DateUTC
2013-11-05 00:22:00,30.0,26.0,-100.00,ESE,117,2.0,4.0,86,0.00,,,0.00,0.000000,,2013-11-05 08:22:00,
2013-11-05 00:32:00,30.0,26.0,-100.00,ESE,117,2.0,4.0,86,0.00,,,0.00,0.000000,,2013-11-05 08:32:00,
2013-11-05 00:42:00,30.0,26.0,-100.00,ESE,117,2.0,4.0,86,0.00,,,0.00,0.000000,,2013-11-05 08:42:00,
2013-11-05 00:52:00,30.0,26.0,-100.00,ESE,117,2.0,4.0,86,0.00,,,0.00,0.000000,,2013-11-05 08:52:00,
2013-11-05 01:22:00,29.0,26.0,-100.00,ESE,107,2.0,4.0,89,0.00,,,0.00,0.000000,,2013-11-05 09:22:00,
2013-11-05 01:33:00,29.0,26.0,-100.00,ESE,107,2.0,4.0,89,0.00,,,0.00,0.000000,,2013-11-05 09:33:00,
2013-11-05 01:43:00,29.0,26.0,-100.00,ESE,107,2.0,4.0,89,0.00,,,0.00,0.000000,,2013-11-05 09:43:00,
2013-11-05 01:53:00,29.0,26.0,-100.00,ESE,107,2.0,4.0,89,0.00,,,0.00,0.000000,,2013-11-05 09:53:00,
2013-11-05 02:23:00,30.0,27.0,-100.00,SSE,164,2.0,4.0,89,0.00,,,0.00,0.000000,,2013-11-05 10:23:00,
2013-11-05 02:33:00,30.0,27.0,-100.00,SSE,164,2.0,4.0,89,0.00,,,0.00,0.000000,,2013-11-05 10:33:00,
2013-11-05 02:42:00,30.0,27.0,-100.00,SSE,164,2.0,4.0,89,0.00,,,0.00,0.000000,,2013-11-05 10:42:00,
2013-11-05 02:53:00,30.0,27.0,-100.00,SSE,164,2.0,4.0,89,0.00,,,0.00,0.000000,,2013-11-05 10:53:00,
2013-11-05 03:22:00,33.0,29.0,-100.00,SSW,209,2.0,4.0,84,0.00,,,0.00,0.000000,,2013-11-05 11:22:00,
2013-11-05 03:33:00,33.0,29.0,-100.00,SSW,209,2.0,4.0,84,0.00,,,0.00,0.000000,,2013-11-05 11:33:00,
2013-11-05 03:42:00,33.0,29.0,-100.00,SSW,209,2.0,4.0,84,0.00,,,0.00,0.000000,,2013-11-05 11:42:00,
2013-11-05 03:52:00,33.0,29.0,-100.00,SSW,209,2.0,4.0,84,0.00,,,0.00,0.000000,,2013-11-05 11:52:00,
2013-11-05 04:22:00,31.0,26.0,-100.00,East,88,2.0,5.0,83,0.00,,,0.00,0.000000,,2013-11-05 12:22:00,
2013-11-05 04:31:00,31.0,26.0,-100.00,East,88,2.0,5.0,83,0.00,,,0.00,0.000000,,2013-11-05 12:31:00,
2013-11-05 04:42:00,31.0,26.0,-100.00,East,88,2.0,5.0,83,0.00,,,0.00,0.000000,,2013-11-05 12:42:00,
2013-11-05 04:52:00,31.0,26.0,-100.00,East,88,2.0,5.0,83,0.00,,,0.00,0.000000,,2013-11-05 12:52:00,
2013-11-05 05:21:00,31.0,28.0,-100.00,East,94,1.0,4.0,90,0.00,,,0.00,0.000000,,2013-11-05 13:21:00,
2013-11-05 05:32:00,31.0,28.0,-100.00,East,94,1.0,4.0,90,0.00,,,0.00,0.000000,,2013-11-05 13:32:00,
2013-11-05 05:42:00,31.0,28.0,-100.00,East,94,1.0,4.0,90,0.00,,,0.00,0.000000,,2013-11-05 13:42:00,
2013-11-05 05:52:00,31.0,28.0,-100.00,East,94,1.0,4.0,90,0.00,,,0.00,0.000000,,2013-11-05 13:52:00,
2013-11-05 06:22:00,31.0,30.0,-100.00,ESE,115,2.0,3.0,95,0.00,,,0.00,0.000000,,2013-11-05 14:22:00,
2013-11-05 06:32:00,31.0,30.0,-100.00,ESE,115,2.0,3.0,95,0.00,,,0.00,0.000000,,2013-11-05 14:32:00,
2013-11-05 06:42:00,31.0,30.0,-100.00,ESE,115,2.0,3.0,95,0.00,,,0.00,0.000000,,2013-11-05 14:42:00,
2013-11-05 06:52:00,31.0,30.0,-100.00,ESE,115,2.0,3.0,95,0.00,,,0.00,0.000000,,2013-11-05 14:52:00,
2013-11-05 07:21:00,31.0,30.0,-100.00,SE,134,2.0,7.0,96,0.00,,,0.00,1.000000,,2013-11-05 15:21:00,
2013-11-05 07:33:00,31.0,30.0,-100.00,SE,134,2.0,7.0,96,0.00,,,0.00,1.000000,,2013-11-05 15:33:00,
2013-11-05 07:43:00,31.0,30.0,-100.00,SE,134,2.0,7.0,96,0.00,,,0.00,1.000000,,2013-11-05 15:43:00,
2013-11-05 07:53:00,31.0,30.0,-100.00,SE,134,2.0,7.0,96,0.00,,,0.00,1.000000,,2013-11-05 15:53:00,
2013-11-05 08:23:00,32.0,31.0,-100.00,East,86,0.0,4.0,97,0.00,,,0.00,25.000000,,2013-11-05 16:23:00,
2013-11-05 08:32:00,32.0,31.0,-100.00,East,86,0.0,4.0,97,0.00,,,0.00,25.000000,,2013-11-05 16:32:00,
2013-11-05 08:43:00,32.0,31.0,-100.00,East,86,0.0,4.0,97,0.00,,,0.00,25.000000,,2013-11-05 16:43:00,
2013-11-05 08:52:00,32.0,31.0,-100.00,East,86,0.0,4.0,97,0.00,,,0.00,25.000000,,2013-11-05 16:52:00,
2013-11-05 09:22:00,33.0,32.0,-100.00,ESE,102,3.0,4.0,96,0.04,,,0.04,89.000000,,2013-11-05 17:22:00,
2013-11-05 09:32:00,33.0,32.0,-100.00,ESE,102,3.0,4.0,96,0.04,,,0.04,89.000000,,2013-11-05 17:32:00,
2013-11-05 09:42:00,33.0,32.0,-100.00,ESE,102,3.0,4.0,96,0.04,,,0.04,89.000000,,2013-11-05 17:42:00,
2013-11-05 09:52:00,33.0,32.0,-100.00,ESE,102,3.0,4.0,96,0.04,,,0.04,89.000000,,2013-11-05 17:52:00,
2013-11-05 10:22:00,36.0,35.0,-100.00,East,81,2.0,7.0,96,0.00,,,0.04,138.000000,,2013-11-05 18:22:00,
2013-11-05 10:32:00,36.0,35.0,-100.00,East,81,2.0,7.0,96,0.00,,,0.04,138.000000,,2013-11-05 18:32:00,
2013-11-05 10:42:00,36.0,35.0,-100.00,East,81,2.0,7.0,96,0.00,,,0.04,138.000000,,2013-11-05 18:42:00,
2013-11-05 10:52:00,36.0,35.0,-100.00,East,81,2.0,7.0,96,0.00,,,0.04,138.000000,,2013-11-05 18:52:00,
2013-11-05 11:22:00,38.0,36.0,-100.00,ENE,69,4.0,6.0,94,0.01,,,0.05,201.000000,,2013-11-05 19:22:00,
2013-11-05 11:32:00,38.0,36.0,-100.00,ENE,69,4.0,6.0,94,0.01,,,0.05,201.000000,,2013-11-05 19:32:00,
2013-11-05 11:42:00,38.0,36.0,-100.00,ENE,69,4.0,6.0,94,0.01,,,0.05,201.000000,,2013-11-05 19:42:00,
2013-11-05 11:52:00,38.0,36.0,-100.00,ENE,69,4.0,6.0,94,0.01,,,0.05,201.000000,,2013-11-05 19:52:00,
2013-11-05 12:22:00,40.0,38.0,-100.00,ENE,65,2.0,6.0,92,0.00,,,0.05,222.000000,,2013-11-05 20:22:00,
2013-11-05 12:32:00,40.0,38.0,-100.00,ENE,65,2.0,6.0,92,0.00,,,0.05,222.000000,,2013-11-05 20:32:00,
2013-11-05 12:42:00,40.0,38.0,-100.00,ENE,65,2.0,6.0,92,0.00,,,0.05,222.000000,,2013-11-05 20:42:00,
2013-11-05 12:52:00,40.0,38.0,-100.00,ENE,65,2.0,6.0,92,0.00,,,0.05,222.000000,,2013-11-05 20:52:00,
2013-11-05 13:22:00,43.0,38.0,-100.00,SSW,206,6.0,10.0,83,0.00,,,0.05,248.000000,,2013-11-05 21:22:00,
2013-11-05 13:33:00,43.0,38.0,-100.00,SSW,206,6.0,10.0,83,0.00,,,0.05,248.000000,,2013-11-05 21:33:00,
2013-11-05 13:44:00,43.0,38.0,-100.00,SSW,206,6.0,10.0,83,0.00,,,0.05,248.000000,,2013-11-05 21:44:00,
2013-11-05 13:54:00,43.0,38.0,-100.00,SSW,206,6.0,10.0,83,0.00,,,0.05,248.000000,,2013-11-05 21:54:00,
2013-11-05 14:23:00,44.0,39.0,-100.00,SSW,198,5.0,9.0,81,0.00,,,0.05,266.000000,,2013-11-05 22:23:00,
2013-11-05 14:34:00,44.0,39.0,-100.00,SSW,198,5.0,9.0,81,0.00,,,0.05,266.000000,,2013-11-05 22:34:00,
2013-11-05 14:43:00,44.0,39.0,-100.00,SSW,198,5.0,9.0,81,0.00,,,0.05,266.000000,,2013-11-05 22:43:00,
2013-11-05 14:53:00,44.0,39.0,-100.00,SSW,198,5.0,9.0,81,0.00,,,0.05,266.000000,,2013-11-05 22:53:00,
2013-11-05 15:22:00,44.0,39.0,-100.00,SW,215,5.0,8.0,84,0.00,,,0.05,155.000000,,2013-11-05 23:22:00,
2013-11-05 15:34:00,44.0,39.0,-100.00,SW,215,5.0,8.0,84,0.00,,,0.05,155.000000,,2013-11-05 23:34:00,
2013-11-05 15:42:00,44.0,39.0,-100.00,SW,215,5.0,8.0,84,0.00,,,0.05,155.000000,,2013-11-05 23:42:00,
2013-11-05 15:53:00,44.0,39.0,-100.00,SW,215,5.0,8.0,84,0.00,,,0.05,155.000000,,2013-11-05 23:53:00,
2013-11-05 16:22:00,43.0,39.0,-100.00,SW,224,3.0,8.0,87,0.00,,,0.05,72.000000,,2013-11-06 00:22:00,
2013-11-05 16:32:00,43.0,39.0,-100.00,SW,224,3.0,8.0,87,0.00,,,0.05,72.000000,,2013-11-06 00:32:00,
2013-11-05 16:42:00,43.0,39.0,-100.00,SW,224,3.0,8.0,87,0.00,,,0.05,72.000000,,2013-11-06 00:42:00,
2013-11-05 16:52:00,43.0,39.0,-100.00,SW,224,3.0,8.0,87,0.00,,,0.05,72.000000,,2013-11-06 00:52:00,
2013-11-05 17:21:00,43.0,40.0,-100.00,SW,215,3.0,6.0,90,0.00,,,0.05,32.000000,,2013-11-06 01:21:00,
2013-11-05 17:32:00,43.0,40.0,-100.00,SW,215,3.0,6.0,90,0.00,,,0.05,32.000000,,2013-11-06 01:32:00,
2013-11-05 17:42:00,43.0,40.0,-100.00,SW,215,3.0,6.0,90,0.00,,,0.05,32.000000,,2013-11-06 01:42:00,
2013-11-05 17:52:00,43.0,40.0,-100.00,SW,215,3.0,6.0,90,0.00,,,0.05,32.000000,,2013-11-06 01:52:00,
2013-11-05 18:23:00,42.0,40.0,-100.00,SW,215,3.0,8.0,91,0.00,,,0.05,0.000000,,2013-11-06 02:23:00,
2013-11-05 18:32:00,42.0,40.0,-100.00,SW,215,3.0,8.0,91,0.00,,,0.05,0.000000,,2013-11-06 02:32:00,
2013-11-05 18:42:00,42.0,40.0,-100.00,SW,215,3.0,8.0,91,0.00,,,0.05,0.000000,,2013-11-06 02:42:00,
2013-11-05 18:52:00,42.0,40.0,-100.00,SW,215,3.0,8.0,91,0.00,,,0.05,0.000000,,2013-11-06 02:52:00,
2013-11-05 19:22:00,42.0,41.0,-100.00,SSW,203,2.0,6.0,97,0.00,,,0.05,0.000000,,2013-11-06 03:22:00,
2013-11-05 19:34:00,42.0,41.0,-100.00,SSW,203,2.0,6.0,97,0.00,,,0.05,0.000000,,2013-11-06 03:34:00,
2013-11-05 19:43:00,42.0,41.0,-100.00,SSW,203,2.0,6.0,97,0.00,,,0.05,0.000000,,2013-11-06 03:43:00,
2013-11-05 19:54:00,42.0,41.0,-100.00,SSW,203,2.0,6.0,97,0.00,,,0.05,0.000000,,2013-11-06 03:54:00,
2013-11-05 20:24:00,42.0,41.0,-100.00,SSW,198,2.0,6.0,95,0.00,,,0.05,0.000000,,2013-11-06 04:24:00,
2013-11-05 20:34:00,42.0,41.0,-100.00,SSW,198,2.0,6.0,95,0.00,,,0.05,0.000000,,2013-11-06 04:34:00,
2013-11-05 20:43:00,42.0,41.0,-100.00,SSW,198,2.0,6.0,95,0.00,,,0.05,0.000000,,2013-11-06 04:43:00,
2013-11-05 20:53:00,42.0,41.0,-100.00,SSW,198,2.0,6.0,95,0.00,,,0.05,0.000000,,2013-11-06 04:53:00,
2013-11-05 21:23:00,42.0,41.0,-100.00,SSW,198,3.0,6.0,98,0.01,,,-99.99,0.000000,,2013-11-06 05:23:00,
2013-11-05 21:34:00,42.0,41.0,-100.00,SSW,198,3.0,6.0,98,0.01,,,-99.99,0.000000,,2013-11-06 05:34:00,
2013-11-05 21:44:00,42.0,41.0,-100.00,SSW,198,3.0,6.0,98,0.01,,,-99.99,0.000000,,2013-11-06 05:44:00,
2013-11-05 21:53:00,42.0,41.0,-100.00,SSW,198,3.0,6.0,98,0.01,,,-99.99,0.000000,,2013-11-06 05:53:00,
2013-11-05 22:22:00,42.0,42.0,-100.00,South,181,4.0,5.0,99,0.00,,,0.06,0.000000,,2013-11-06 06:22:00,
2013-11-05 22:32:00,42.0,42.0,-100.00,South,181,4.0,5.0,99,0.00,,,0.06,0.000000,,2013-11-06 06:32:00,
2013-11-05 22:42:00,42.0,42.0,-100.00,South,181,4.0,5.0,99,0.00,,,0.06,0.000000,,2013-11-06 06:42:00,
2013-11-05 22:52:00,42.0,42.0,-100.00,South,181,4.0,5.0,99,0.00,,,0.06,0.000000,,2013-11-06 06:52:00,
2013-11-05 23:21:00,43.0,42.0,-100.00,SSW,199,3.0,6.0,98,0.00,,,0.06,0.000000,,2013-11-06 07:21:00,
2013-11-05 23:32:00,43.0,42.0,-100.00,SSW,199,3.0,6.0,98,0.00,,,0.06,0.000000,,2013-11-06 07:32:00,
2013-11-05 23:42:00,43.0,42.0,-100.00,SSW,199,3.0,6.0,98,0.00,,,0.06,0.000000,,2013-11-06 07:42:00,
2013-11-05 23:52:00,43.0,42.0,-100.00,SSW,199,3.0,6.0,98,0.00,,,0.06,0.000000,,2013-11-06 07:52:00,